Flight Track Log - Related Links

Times and Time Zones

All times are in EDT time to prevent confusion due to time zone crossing. See the SWA407 flight status page for this flight to view local times or setup timezone preferences in your user account.

Time Position Orientation Groundspeed Altitude Reporting Facility
EDT Latitude Longitude Course Direction KTS MPH feet Rate Location/Type
Mon 03:03:11 PM 28.4333 -81.3167 196° South 150 173 700  Level Orlando TRACON
Mon 03:03:59 PM 28.3833 -81.3333 196° South 201 231 2,900 3,167 Climbing Orlando TRACON
Mon 03:04:59 PM 28.3333 -81.3667 210° Southwest 199 229 6,400 3,093 Climbing Orlando TRACON
Mon 03:06:40 PM 28.4292 -81.4056 340° North 288 331 11,200 3,130 Climbing Jacksonville Center
Mon 03:07:40 PM 28.5233 -81.4206 352° North 312 359 14,800 3,550 Climbing Jacksonville Center
Mon 03:08:40 PM 28.6239 -81.4500 346° North 341 392 18,300 3,350 Climbing Jacksonville Center
Mon 03:09:40 PM 28.7306 -81.4767 348° North 363 418 21,500 3,150 Climbing Jacksonville Center
Mon 03:10:40 PM 28.8394 -81.5083 346° North 386 444 24,600 2,231 Climbing Jacksonville Center
Mon 03:11:41 PM 28.9506 -81.5425 345° North 399 459 26,000 700 Climbing Jacksonville Center
Mon 03:12:40 PM 29.0636 -81.5717 347° North 405 466 26,000  Level Jacksonville Center
Mon 03:13:40 PM 29.1744 -81.6011 347° North 410 472 26,000  Level Jacksonville Center
Mon 03:14:40 PM 29.2875 -81.6331 346° North 410 472 26,000  Level Jacksonville Center
Mon 03:15:40 PM 29.3983 -81.6650 346° North 410 472 26,000 300 Level Jacksonville Center
Mon 03:16:40 PM 29.5094 -81.6947 347° North 410 472 26,600 1,550 Climbing Jacksonville Center
Mon 03:17:40 PM 29.6225 -81.7292 345° North 410 472 29,100 2,500 Climbing Jacksonville Center
Mon 03:18:40 PM 29.7375 -81.7589 347° North 415 478 31,600 2,400 Climbing Jacksonville Center
Mon 03:19:40 PM 29.8525 -81.7908 346° North 415 478 33,900 1,700 Climbing Jacksonville Center
Mon 03:20:40 PM 29.9678 -81.8233 346° North 415 478 35,000 550 Climbing Jacksonville Center
Mon 03:21:40 PM 30.0847 -81.8508 348° North 415 478 35,000  Level Jacksonville Center
Mon 03:22:40 PM 30.2019 -81.8831 347° North 415 478 35,000  Level Jacksonville Center
Mon 03:23:40 PM 30.3231 -81.8747 North 426 490 35,000  Level Jacksonville Center
Mon 03:24:40 PM 30.4481 -81.8564 North 426 490 35,000  Level Jacksonville Center
Mon 03:25:40 PM 30.5608 -81.8431 North 450 518 35,000  Level Jacksonville Center
Mon 03:26:40 PM 30.6739 -81.8733 347° North 424 488 35,000  Level Jacksonville Center
Mon 03:27:40 PM 30.7786 -81.9278 336° Northwest 410 472 35,000  Level Jacksonville Center
Mon 03:28:40 PM 30.8833 -81.9800 337° Northwest 410 472 35,000  Level Jacksonville Center
Mon 03:29:40 PM 30.9903 -82.0322 337° Northwest 410 472 35,000  Level Jacksonville Center
Mon 03:30:40 PM 31.0950 -82.0872 336° Northwest 410 472 35,000  Level Jacksonville Center
Mon 03:31:40 PM 31.2039 -82.1419 337° Northwest 410 472 35,000  Level Jacksonville Center
Mon 03:32:40 PM 31.3128 -82.1947 338° Northwest 420 483 35,000  Level Jacksonville Center
Mon 03:34:43 PM 31.5361 -82.3042 337° Northwest 420 483 35,000  Level Atlanta Center
Mon 03:35:43 PM 31.6414 -82.3606 335° Northwest 420 483 35,000  Level Atlanta Center
Mon 03:36:43 PM 31.7483 -82.4147 337° Northwest 420 483 35,000  Level Atlanta Center
Mon 03:37:43 PM 31.8556 -82.4667 338° Northwest 420 483 35,000  Level Atlanta Center
Mon 03:38:43 PM 31.9647 -82.5236 336° Northwest 420 483 35,000  Level Atlanta Center
Mon 03:39:43 PM 32.0678 -82.5881 332° Northwest 420 483 35,000 -200 Level Atlanta Center
Mon 03:40:43 PM 32.1522 -82.6772 318° Northwest 420 483 34,600 -700 Descending Atlanta Center
Mon 03:41:43 PM 32.2411 -82.7692 319° Northwest 414 476 33,600 -950 Descending Atlanta Center
Mon 03:42:43 PM 32.3275 -82.8614 318° Northwest 419 482 32,700 -1,000 Descending Atlanta Center
Mon 03:43:43 PM 32.4139 -82.9514 319° Northwest 419 482 31,600 -1,050 Descending Atlanta Center
Mon 03:44:43 PM 32.4961 -83.0414 317° Northwest 414 476 30,600 -1,150 Descending Atlanta Center
Mon 03:45:43 PM 32.5761 -83.1267 318° Northwest 407 468 29,300 -1,750 Descending Atlanta Center
Mon 03:46:43 PM 32.6600 -83.2147 319° Northwest 401 461 27,100 -2,150 Descending Atlanta Center
Mon 03:47:43 PM 32.7400 -83.3006 318° Northwest 394 453 25,000 -2,150 Descending Atlanta Center
Mon 03:48:43 PM 32.8178 -83.3814 319° Northwest 387 445 22,800 -2,100 Descending Atlanta Center
Mon 03:49:43 PM 32.8933 -83.4625 318° Northwest 376 433 20,800 -2,000 Descending Atlanta Center
Mon 03:50:43 PM 32.9667 -83.5411 318° Northwest 364 419 18,800 -2,000 Descending Atlanta Center
Mon 03:51:43 PM 33.0400 -83.6200 318° Northwest 358 412 16,800 -2,100 Descending Atlanta Center
Mon 03:52:43 PM 33.1175 -83.7014 319° Northwest 351 404 14,600 -2,313 Descending Atlanta Center
Mon 03:53:06 PM 33.1500 -83.7333 321° Northwest 331 381 13,600 -1,880 Descending Atlanta TRACON
Mon 03:54:06 PM 33.2167 -83.8000 320° Northwest 318 366 12,000 -1,350 Descending Atlanta TRACON
Mon 03:55:06 PM 33.2667 -83.8833 306° West 293 337 10,900 -1,175 Descending Atlanta TRACON
Mon 03:55:43 PM 33.3036 -83.9069 332° Northwest 295 339 10,100 -1,237 Descending Atlanta Center
Mon 03:56:43 PM 33.3808 -83.9269 348° North 279 321 8,900 -1,000 Descending Atlanta Center
Mon 03:57:43 PM 33.4581 -83.9442 349° North 279 321 8,100 -400 Descending Atlanta Center
Mon 03:58:43 PM 33.5311 -83.9617 349° North 274 315 8,100 -500 Level Atlanta Center
Mon 03:59:43 PM 33.6064 -83.9889 343° North 274 315 7,100 -550 Descending Atlanta Center
Mon 04:00:43 PM 33.6314 -84.0539 295° West 250 288 7,000 -800 Descending Atlanta Center
Mon 04:01:43 PM 33.6314 -84.1411 270° West 250 288 5,500 -1,590 Descending Atlanta Center
Mon 04:02:06 PM 33.6333 -84.1833 273° West 222 255 4,800 -1,301 Descending Atlanta TRACON
Mon 04:03:06 PM 33.6333 -84.2500 270° West 195 224 3,700 -1,050 Descending Atlanta TRACON
Mon 04:04:06 PM 33.6333 -84.3000 270° West 189 217 2,700 -900 Descending Atlanta TRACON
Mon 04:05:06 PM 33.6333 -84.3500 270° West 145 167 1,900 -750 Descending Atlanta TRACON
Mon 04:06:06 PM 33.6333 -84.4000 270° West 143 165 1,200 -700 Descending Atlanta TRACON
Mon 04:08:00 PM 33.6333 -84.4167 274° West  Level FlightAware Approximate

Login

Don't have an account? Register now (free) for customized features, flight alerts, and more!